createdAt,value
2017-11-01T00:01:22.998Z,24.40
2017-11-01T00:03:51.936Z,19.90
2017-11-01T00:06:20.195Z,17.92
2017-11-01T00:08:48.382Z,17.97
2017-11-01T00:11:16.520Z,18.92
2017-11-01T00:13:44.662Z,20.57
2017-11-01T00:16:12.812Z,16.97
2017-11-01T00:18:40.959Z,15.77
2017-11-01T00:21:09.123Z,21.57
2017-11-01T00:23:37.275Z,23.40
2017-11-01T00:26:05.477Z,22.87
2017-11-01T00:28:33.629Z,26.90
2017-11-01T00:31:01.823Z,19.57
2017-11-01T00:40:30.506Z,22.67
2017-11-01T00:42:59.460Z,23.43
2017-11-01T00:45:27.623Z,28.00
2017-11-01T00:47:55.792Z,25.17
2017-11-01T00:50:23.935Z,23.83
2017-11-01T00:52:52.513Z,24.57
2017-11-01T00:55:20.660Z,28.23
2017-11-01T00:57:49.614Z,23.73
2017-11-01T01:00:18.292Z,26.67
2017-11-01T01:02:46.463Z,24.20
2017-11-01T01:05:14.610Z,34.83
2017-11-01T01:07:42.758Z,24.30
2017-11-01T01:10:11.707Z,25.33
2017-11-01T01:12:39.858Z,31.13
2017-11-01T01:15:08.006Z,22.60
2017-11-01T01:17:36.939Z,24.33
2017-11-01T01:20:05.097Z,37.57
2017-11-01T01:22:33.288Z,24.33
2017-11-01T01:25:01.438Z,24.60
2017-11-01T01:27:29.591Z,24.90
2017-11-01T01:29:58.539Z,34.50
2017-11-01T01:32:26.694Z,24.43
2017-11-01T01:34:54.858Z,33.50
2017-11-01T01:37:22.992Z,32.00
2017-11-01T01:39:51.922Z,31.23
2017-11-01T01:42:20.074Z,31.53
2017-11-01T01:44:48.247Z,30.90
2017-11-01T01:47:16.408Z,37.33
2017-11-01T01:49:44.578Z,40.03
2017-11-01T01:52:13.499Z,33.90
2017-11-01T01:54:41.660Z,46.97
2017-11-01T01:57:09.866Z,37.17
2017-11-01T01:59:38.143Z,29.77
2017-11-01T02:02:06.300Z,32.03
2017-11-01T02:04:34.491Z,33.07
2017-11-01T02:07:02.643Z,41.37
2017-11-01T02:09:30.792Z,35.50
2017-11-01T02:11:58.990Z,30.37
2017-11-01T02:14:27.134Z,39.17
2017-11-01T02:16:56.064Z,35.93
2017-11-01T02:19:24.219Z,31.33
2017-11-01T02:21:52.380Z,34.30
2017-11-01T02:24:20.527Z,45.67
2017-11-01T02:26:49.463Z,37.93
2017-11-01T02:29:17.617Z,36.97
2017-11-01T02:31:45.824Z,35.33
2017-11-01T02:34:13.968Z,44.73
2017-11-01T02:36:42.138Z,39.47
2017-11-01T02:39:10.311Z,41.47
2017-11-01T02:41:38.484Z,37.90
2017-11-01T02:44:06.638Z,45.42
2017-11-01T02:46:34.795Z,40.17
2017-11-01T02:49:03.724Z,40.60
2017-11-01T02:51:31.920Z,48.93
2017-11-01T02:54:00.093Z,39.13
2017-11-01T02:56:28.260Z,46.50
2017-11-01T02:58:56.435Z,38.70
2017-11-01T03:01:24.588Z,42.70
2017-11-01T03:03:52.754Z,46.00
2017-11-01T03:06:20.902Z,49.50
2017-11-01T03:08:49.838Z,49.40
2017-11-01T03:11:17.995Z,40.13
2017-11-01T03:13:46.154Z,44.50
2017-11-01T03:16:14.300Z,40.20
2017-11-01T03:18:42.454Z,55.23
2017-11-01T03:21:10.616Z,48.90
2017-11-01T03:23:38.874Z,50.17
2017-11-01T03:26:07.019Z,60.10
2017-11-01T03:28:35.228Z,55.37
2017-11-01T03:31:03.819Z,66.47
2017-11-01T03:33:31.971Z,60.30
2017-11-01T03:36:00.159Z,68.57
2017-11-01T03:38:28.337Z,69.50
2017-11-01T03:40:56.497Z,66.97
2017-11-01T03:43:24.642Z,60.87
2017-11-01T03:45:52.812Z,61.65
2017-11-01T03:48:20.959Z,63.90
2017-11-01T03:50:49.903Z,61.42
2017-11-01T03:53:18.071Z,76.80
2017-11-01T03:55:46.243Z,84.27
2017-11-01T03:58:14.427Z,75.30
2017-11-01T04:00:42.611Z,63.55
2017-11-01T04:03:10.771Z,78.75
2017-11-01T04:05:38.934Z,79.85
2017-11-01T04:08:07.092Z,75.30
2017-11-01T04:10:35.259Z,84.45
2017-11-01T04:13:03.407Z,89.10
2017-11-01T04:15:32.335Z,79.00
2017-11-01T04:18:02.410Z,80.83
2017-11-01T04:20:31.376Z,80.72
2017-11-01T04:22:59.520Z,83.22
2017-11-01T04:25:28.431Z,91.35
2017-11-01T04:27:56.599Z,74.78
2017-11-01T04:30:24.759Z,83.30
2017-11-01T04:32:52.938Z,87.65
2017-11-01T04:35:21.091Z,84.72
2017-11-01T04:37:49.277Z,79.60
2017-11-01T04:40:18.108Z,79.70
2017-11-01T04:42:47.056Z,79.03
2017-11-01T04:45:15.203Z,83.25
2017-11-01T04:47:43.520Z,115.85
2017-11-01T04:50:11.683Z,83.77
2017-11-01T04:52:40.648Z,84.35
2017-11-01T04:55:12.725Z,86.57
2017-11-01T04:57:41.730Z,83.12
2017-11-01T05:00:15.334Z,94.13
2017-11-01T05:02:43.527Z,81.73
2017-11-01T05:05:17.361Z,95.00
2017-11-01T05:07:46.416Z,76.63
2017-11-01T05:10:16.467Z,76.10
2017-11-01T05:12:45.423Z,75.43
2017-11-01T05:15:23.732Z,76.80
2017-11-01T05:17:51.894Z,68.83
2017-11-01T05:20:20.070Z,75.67
2017-11-01T05:22:48.237Z,86.93
2017-11-01T05:25:22.028Z,98.30
2017-11-01T05:27:50.175Z,91.10
2017-11-01T05:30:18.394Z,93.27
2017-11-01T05:32:46.556Z,90.20
2017-11-01T05:35:14.724Z,80.55
2017-11-01T05:37:42.870Z,81.00
2017-11-01T05:40:11.040Z,96.70
2017-11-01T05:42:39.211Z,92.82
2017-11-01T05:45:08.140Z,83.80
2017-11-01T05:47:36.292Z,82.37
2017-11-01T05:50:04.456Z,82.68
2017-11-01T05:52:32.631Z,88.62
2017-11-01T05:55:00.831Z,96.15
2017-11-01T05:57:29.007Z,86.70
2017-11-01T05:59:57.182Z,88.57
2017-11-01T06:02:25.355Z,81.28
2017-11-01T06:04:53.523Z,97.88
2017-11-01T06:07:21.695Z,75.25
2017-11-01T06:09:49.850Z,104.68
2017-11-01T06:12:18.015Z,86.65
2017-11-01T06:14:46.163Z,89.87
2017-11-01T06:17:15.116Z,95.80
2017-11-01T06:19:43.257Z,83.12
2017-11-01T06:22:11.463Z,99.05
2017-11-01T06:24:39.652Z,102.38
2017-11-01T06:27:07.907Z,99.47
2017-11-01T06:29:36.052Z,69.13
2017-11-01T06:32:04.227Z,94.53
2017-11-01T06:34:32.559Z,70.93
2017-11-01T06:37:00.806Z,76.97
2017-11-01T06:39:28.972Z,58.90
2017-11-01T06:41:57.122Z,67.70
2017-11-01T06:44:25.294Z,78.33
2017-11-01T06:46:53.451Z,72.37
2017-11-01T06:49:21.616Z,80.03
2017-11-01T06:51:51.992Z,68.00
2017-11-01T06:54:20.167Z,60.27
2017-11-01T06:56:48.344Z,65.62
2017-11-01T06:59:16.500Z,63.67
2017-11-01T07:01:44.671Z,71.25
2017-11-01T07:04:12.847Z,81.67
2017-11-01T07:06:41.022Z,70.30
2017-11-01T07:09:09.187Z,64.78
2017-11-01T07:11:42.895Z,61.60
2017-11-01T07:14:11.071Z,72.35
2017-11-01T07:16:39.235Z,75.07
2017-11-01T07:19:07.383Z,74.80
2017-11-01T07:21:35.609Z,71.43
2017-11-01T07:24:03.759Z,65.55
2017-11-01T07:26:31.915Z,65.10
2017-11-01T07:29:00.063Z,70.13
2017-11-01T07:31:29.004Z,65.45
2017-11-01T07:33:57.163Z,72.80
2017-11-01T07:36:25.354Z,75.97
2017-11-01T07:38:53.507Z,85.60
2017-11-01T07:41:21.698Z,62.23
2017-11-01T07:43:49.867Z,64.85
2017-11-01T07:46:18.503Z,62.20
2017-11-01T07:48:47.448Z,69.57
2017-11-01T07:51:15.635Z,76.47
2017-11-01T07:53:43.795Z,60.13
2017-11-01T07:56:11.948Z,70.30
2017-11-01T07:58:40.115Z,61.73
2017-11-01T08:01:08.306Z,62.90
2017-11-01T08:03:36.472Z,60.15
2017-11-01T08:06:04.616Z,61.05
2017-11-01T08:08:32.786Z,70.80
2017-11-01T08:11:01.002Z,63.30
2017-11-01T08:13:29.160Z,56.40
2017-11-01T08:15:57.300Z,56.93
2017-11-01T08:18:26.227Z,53.20
2017-11-01T08:20:54.376Z,51.45
2017-11-01T08:23:22.551Z,53.40
2017-11-01T08:25:50.694Z,52.38
2017-11-01T08:28:19.655Z,47.90
2017-11-01T08:30:47.799Z,45.67
2017-11-01T08:33:15.988Z,51.03
2017-11-01T08:35:44.560Z,47.87
2017-11-01T08:38:12.702Z,35.40
2017-11-01T08:40:41.742Z,44.00
2017-11-01T08:43:09.900Z,40.15
2017-11-01T08:45:38.062Z,38.40
2017-11-01T08:48:06.215Z,31.67
2017-11-01T08:50:34.382Z,33.03
2017-11-01T08:53:03.312Z,34.97
2017-11-01T08:55:31.524Z,36.73
2017-11-01T08:58:01.085Z,30.50
2017-11-01T09:00:29.285Z,23.43
2017-11-01T09:02:57.432Z,29.63
2017-11-01T09:05:25.611Z,23.63
2017-11-01T09:07:53.747Z,30.83
2017-11-01T09:10:22.679Z,27.27
2017-11-01T09:12:50.862Z,31.13
2017-11-01T09:15:19.010Z,28.33
2017-11-01T09:17:47.919Z,26.00
2017-11-01T09:20:16.207Z,23.37
2017-11-01T09:22:44.377Z,24.30
2017-11-01T09:25:12.516Z,27.70
2017-11-01T09:27:40.679Z,29.67
2017-11-01T09:30:08.836Z,23.13
2017-11-01T09:32:37.774Z,28.53
2017-11-01T09:35:05.921Z,22.13
2017-11-01T09:37:34.116Z,22.97
2017-11-01T09:40:02.292Z,23.97
2017-11-01T09:42:30.568Z,22.23
2017-11-01T09:44:58.724Z,22.93
2017-11-01T09:47:27.247Z,24.90
2017-11-01T09:49:55.427Z,21.30
2017-11-01T09:52:23.590Z,16.10
2017-11-01T09:54:51.759Z,20.43
2017-11-01T09:57:19.912Z,19.30
2017-11-01T09:59:48.224Z,21.10
2017-11-01T10:02:17.171Z,19.13
2017-11-01T10:04:45.345Z,19.30
2017-11-01T10:07:13.547Z,21.50
2017-11-01T10:09:41.718Z,20.63
2017-11-01T10:12:10.027Z,26.10
2017-11-01T10:14:38.222Z,33.23
2017-11-01T10:17:06.665Z,29.53
2017-11-01T10:19:35.874Z,24.93
2017-11-01T10:22:04.977Z,25.57
2017-11-01T10:24:33.172Z,30.97
2017-11-01T10:27:01.487Z,25.47
2017-11-01T10:29:29.670Z,32.80
2017-11-01T10:31:57.836Z,38.37
2017-11-01T10:34:26.024Z,37.00
2017-11-01T10:36:54.166Z,34.50
2017-11-01T10:39:22.325Z,33.07
2017-11-01T10:41:50.491Z,33.17
2017-11-01T10:44:18.643Z,35.67
2017-11-01T10:46:47.019Z,36.90
2017-11-01T10:49:15.179Z,36.27
2017-11-01T10:51:44.112Z,43.63
2017-11-01T10:54:12.291Z,41.30
2017-11-01T10:56:51.394Z,40.17
2017-11-01T10:59:19.792Z,41.40
2017-11-01T11:01:47.956Z,48.33
2017-11-01T11:04:16.138Z,45.33
2017-11-01T11:06:44.352Z,45.33
2017-11-01T11:09:13.266Z,51.27
2017-11-01T11:11:41.436Z,49.80
2017-11-01T11:14:09.603Z,48.10
2017-11-01T11:16:38.548Z,50.80
2017-11-01T11:19:06.714Z,55.10
2017-11-01T11:21:34.873Z,55.67
2017-11-01T11:24:03.051Z,60.93
2017-11-01T11:26:31.214Z,57.50
2017-11-01T11:28:59.376Z,70.97
2017-11-01T11:31:27.535Z,67.13
2017-11-01T11:33:56.469Z,70.57
2017-11-01T11:36:24.740Z,62.57
2017-11-01T11:38:53.019Z,74.73
2017-11-01T11:41:21.189Z,73.50
2017-11-01T11:43:49.438Z,69.67
2017-11-01T11:46:17.592Z,75.53
2017-11-01T11:48:46.537Z,75.50
2017-11-01T11:51:14.734Z,70.50
2017-11-01T11:53:42.929Z,75.33
2017-11-01T11:56:11.873Z,72.23
2017-11-01T11:58:40.034Z,70.13
2017-11-01T12:01:08.514Z,71.17
2017-11-01T12:03:36.959Z,61.43
2017-11-01T12:06:05.131Z,74.80
2017-11-01T12:08:33.287Z,69.80
2017-11-01T12:11:02.240Z,65.43
2017-11-01T12:13:30.390Z,64.70
2017-11-01T12:15:58.564Z,70.97
2017-11-01T12:18:26.714Z,83.43
2017-11-01T12:20:54.881Z,74.03
2017-11-01T12:23:23.800Z,70.93
2017-11-01T12:25:51.985Z,64.60
2017-11-01T12:28:20.143Z,58.97
2017-11-01T12:30:48.322Z,71.00
2017-11-01T12:33:16.597Z,62.43
2017-11-01T12:35:44.758Z,62.67
2017-11-01T12:38:12.914Z,56.17
2017-11-01T12:40:41.067Z,50.60
2017-11-01T12:43:10.012Z,52.70
2017-11-01T12:45:38.180Z,62.03
2017-11-01T12:48:06.343Z,52.23
2017-11-01T12:50:34.492Z,57.27
2017-11-01T12:53:03.781Z,48.00
2017-11-01T12:55:32.719Z,55.13
2017-11-01T12:58:00.897Z,58.77
2017-11-01T13:00:29.612Z,48.20
2017-11-01T13:02:57.860Z,63.23
2017-11-01T13:05:26.020Z,64.03
2017-11-01T13:07:54.200Z,73.17
2017-11-01T13:10:22.347Z,70.03
2017-11-01T13:12:50.551Z,66.90
2017-11-01T13:15:18.694Z,59.37
2017-11-01T13:17:46.840Z,61.30
2017-11-01T13:20:15.778Z,58.30
2017-11-01T13:22:43.932Z,59.40
2017-11-01T13:25:12.100Z,59.83
2017-11-01T13:27:40.301Z,71.00
2017-11-01T13:30:08.469Z,67.90
2017-11-01T13:32:36.623Z,71.33
2017-11-01T13:35:04.822Z,66.93
2017-11-01T13:37:32.980Z,72.97
2017-11-01T13:40:01.176Z,64.50
2017-11-01T13:42:29.338Z,70.77
2017-11-01T13:44:57.517Z,62.53
2017-11-01T13:47:25.675Z,69.77
2017-11-01T13:49:53.842Z,62.83
2017-11-01T13:52:21.991Z,72.53
2017-11-01T13:54:50.531Z,64.17
2017-11-01T13:57:18.696Z,61.03
2017-11-01T13:59:46.849Z,65.83
2017-11-01T14:02:15.030Z,66.37
2017-11-01T14:04:43.879Z,55.33
2017-11-01T14:07:12.052Z,77.33
2017-11-01T14:09:40.976Z,68.80
2017-11-01T14:12:09.150Z,74.63
2017-11-01T14:14:37.327Z,72.27
2017-11-01T14:17:05.499Z,83.30
2017-11-01T14:19:34.387Z,66.47
2017-11-01T14:22:02.579Z,70.20
2017-11-01T14:24:30.753Z,70.67
2017-11-01T14:26:58.950Z,85.73
2017-11-01T14:29:27.876Z,77.87
2017-11-01T14:31:56.892Z,72.57
2017-11-01T14:34:25.042Z,75.50
2017-11-01T14:36:53.204Z,76.57
2017-11-01T14:39:21.425Z,73.03
2017-11-01T14:41:49.586Z,76.47
2017-11-01T14:44:17.866Z,72.80
2017-11-01T14:46:46.018Z,75.03
2017-11-01T14:49:14.200Z,66.67
2017-11-01T14:51:42.362Z,71.27
2017-11-01T14:54:10.542Z,68.10
2017-11-01T14:56:38.700Z,74.00
2017-11-01T14:59:06.895Z,69.00
2017-11-01T15:01:35.061Z,67.73
2017-11-01T15:04:03.819Z,70.93
2017-11-01T15:06:32.794Z,74.37
2017-11-01T15:09:01.740Z,59.77
2017-11-01T15:11:29.909Z,67.67
2017-11-01T15:13:58.103Z,76.07
2017-11-01T15:16:26.423Z,61.10
2017-11-01T15:18:54.592Z,73.77
2017-11-01T15:21:23.540Z,86.90
2017-11-01T15:23:51.692Z,72.00
2017-11-01T15:26:19.867Z,73.73
2017-11-01T15:28:48.023Z,65.07
2017-11-01T15:31:16.208Z,65.57
2017-11-01T15:33:44.350Z,71.63
2017-11-01T15:36:12.525Z,71.87
2017-11-01T15:38:40.688Z,79.03
2017-11-01T15:41:09.631Z,83.60
2017-11-01T15:43:43.534Z,82.40
2017-11-01T15:46:11.707Z,98.77
2017-11-01T15:48:39.862Z,91.77
2017-11-01T15:51:08.060Z,98.87
2017-11-01T15:53:42.184Z,87.37
2017-11-01T15:56:10.535Z,90.17
2017-11-01T15:58:38.698Z,90.20
2017-11-01T16:01:06.865Z,86.60
2017-11-01T16:03:35.035Z,92.37
2017-11-01T16:06:03.235Z,90.60
2017-11-01T16:08:31.428Z,80.43
2017-11-01T16:10:59.652Z,88.70
2017-11-01T16:13:27.836Z,114.97
2017-11-01T16:15:56.019Z,106.47
2017-11-01T16:18:24.208Z,89.27
2017-11-01T16:20:52.368Z,97.50
2017-11-01T16:23:20.545Z,89.13
2017-11-01T16:25:49.200Z,92.43
2017-11-01T16:28:17.497Z,111.10
2017-11-01T16:30:45.656Z,101.97
2017-11-01T16:33:13.868Z,101.90
2017-11-01T16:35:43.311Z,108.40
2017-11-01T16:38:12.239Z,102.57
2017-11-01T16:40:40.934Z,87.20
2017-11-01T16:43:09.087Z,90.00
2017-11-01T16:45:37.280Z,89.53
2017-11-01T16:48:05.439Z,93.43
2017-11-01T16:50:33.608Z,97.80
2017-11-01T16:53:01.763Z,94.33
2017-11-01T16:55:29.969Z,110.07
2017-11-01T16:57:58.132Z,103.33
2017-11-01T17:00:27.407Z,103.70
2017-11-01T17:02:55.969Z,91.63
2017-11-01T17:05:24.158Z,106.57
2017-11-01T17:07:52.935Z,105.30
2017-11-01T17:10:21.874Z,105.20
2017-11-01T17:12:50.011Z,91.27
2017-11-01T17:15:18.328Z,98.90
2017-11-01T17:17:46.484Z,91.83
2017-11-01T17:20:14.646Z,90.70
2017-11-01T17:22:42.807Z,89.47
2017-11-01T17:25:10.967Z,96.37
2017-11-01T17:27:40.018Z,112.00
2017-11-01T17:30:08.186Z,106.33
2017-11-01T17:32:36.364Z,105.30
2017-11-01T17:35:04.543Z,99.27
2017-11-01T17:37:32.747Z,92.60
2017-11-01T17:40:01.697Z,106.20
2017-11-01T17:42:29.876Z,98.00
2017-11-01T17:44:58.022Z,114.23
2017-11-01T17:47:26.211Z,106.33
2017-11-01T17:49:54.384Z,103.27
2017-11-01T17:52:22.572Z,112.33
2017-11-01T17:54:50.746Z,104.70
2017-11-01T17:57:18.919Z,104.60
2017-11-01T17:59:47.067Z,109.07
2017-11-01T18:02:15.238Z,111.53
2017-11-01T18:04:43.515Z,115.47
2017-11-01T18:07:12.461Z,100.93
2017-11-01T18:09:41.409Z,105.63
2017-11-01T18:12:09.593Z,88.37
2017-11-01T18:14:37.778Z,89.33
2017-11-01T18:17:06.751Z,92.97
2017-11-01T18:19:35.455Z,81.53
2017-11-01T18:22:03.724Z,88.33
2017-11-01T18:24:31.906Z,87.63
2017-11-01T18:27:00.091Z,93.67
2017-11-01T18:29:29.039Z,96.07
2017-11-01T18:31:57.198Z,101.87
2017-11-01T18:34:25.368Z,93.83
2017-11-01T18:36:53.527Z,108.63
2017-11-01T18:39:21.722Z,91.70
2017-11-01T18:41:49.885Z,88.80
2017-11-01T18:44:18.077Z,92.00
2017-11-01T18:46:46.270Z,84.30
2017-11-01T18:49:14.435Z,104.87
2017-11-01T18:51:42.599Z,83.17
2017-11-01T18:54:10.760Z,88.93
2017-11-01T18:56:38.927Z,92.23
2017-11-01T18:59:07.107Z,86.17
2017-11-01T19:01:35.296Z,87.57
2017-11-01T19:04:03.465Z,90.37
2017-11-01T19:06:31.643Z,87.83
2017-11-01T19:08:59.803Z,107.97
2017-11-01T19:11:27.967Z,92.10
2017-11-01T19:13:56.128Z,79.20
2017-11-01T19:16:24.324Z,84.27
2017-11-01T19:18:52.483Z,81.10
2017-11-01T19:21:20.660Z,87.50
2017-11-01T19:23:48.846Z,93.30
2017-11-01T19:26:17.409Z,83.10
2017-11-01T19:28:45.616Z,82.13
2017-11-01T19:31:13.772Z,73.70
2017-11-01T19:33:41.952Z,79.50
2017-11-01T19:36:10.111Z,77.40
2017-11-01T19:38:38.287Z,76.43
2017-11-01T19:41:06.465Z,87.17
2017-11-01T19:43:34.636Z,91.17
2017-11-01T19:46:02.811Z,87.50
2017-11-01T19:48:30.982Z,103.90
2017-11-01T19:50:59.131Z,96.23
2017-11-01T19:53:27.307Z,110.43
2017-11-01T19:55:55.491Z,113.83
2017-11-01T19:58:23.642Z,156.13
2017-11-01T20:00:52.027Z,112.10
2017-11-01T20:03:20.195Z,138.87
2017-11-01T20:05:48.369Z,133.30
2017-11-01T20:08:16.549Z,128.00
2017-11-01T20:10:44.731Z,142.07
2017-11-01T20:13:12.891Z,122.47
2017-11-01T20:15:41.068Z,129.93
2017-11-01T20:18:09.223Z,132.67
2017-11-01T20:20:37.616Z,115.37
2017-11-01T20:23:05.777Z,119.03
2017-11-01T20:25:33.952Z,116.80
2017-11-01T20:28:02.106Z,112.33
2017-11-01T20:30:31.045Z,111.37
2017-11-01T20:32:59.203Z,119.80
2017-11-01T20:35:27.428Z,98.53
2017-11-01T20:37:55.592Z,108.43
2017-11-01T20:40:23.776Z,124.00
2017-11-01T20:42:51.937Z,93.17
2017-11-01T20:45:20.832Z,110.33
2017-11-01T20:47:49.764Z,121.93
2017-11-01T20:50:18.701Z,111.13
2017-11-01T20:52:46.863Z,113.70
2017-11-01T20:55:15.027Z,125.13
2017-11-01T20:57:43.712Z,116.10
2017-11-01T21:00:11.879Z,107.80
2017-11-01T21:02:40.170Z,109.57
2017-11-01T21:05:08.331Z,105.70
2017-11-01T21:07:36.508Z,109.57
2017-11-01T21:10:04.665Z,116.50
2017-11-01T21:12:33.535Z,112.67
2017-11-01T21:15:01.678Z,98.73
2017-11-01T21:17:30.635Z,105.60
2017-11-01T21:19:58.796Z,91.40
2017-11-01T21:22:26.967Z,97.30
2017-11-01T21:24:55.256Z,98.47
2017-11-01T21:27:23.531Z,89.03
2017-11-01T21:29:51.696Z,96.97
2017-11-01T21:32:19.863Z,100.43
2017-11-01T21:34:48.015Z,90.53
2017-11-01T21:37:16.183Z,77.67
2017-11-01T21:39:44.335Z,79.63
2017-11-01T21:42:13.258Z,79.30
2017-11-01T21:44:41.431Z,83.73
2017-11-01T21:47:09.625Z,77.27
2017-11-01T21:49:37.786Z,83.83
2017-11-01T21:52:05.930Z,89.13
2017-11-01T21:54:34.138Z,76.57
2017-11-01T21:57:02.288Z,93.50
2017-11-01T21:59:30.478Z,75.67
2017-11-01T22:01:58.635Z,90.70
2017-11-01T22:04:26.846Z,73.97
2017-11-01T22:06:55.006Z,87.43
2017-11-01T22:09:23.189Z,81.43
2017-11-01T22:11:51.343Z,84.40
2017-11-01T22:14:19.520Z,87.93
2017-11-01T22:16:47.678Z,63.87
2017-11-01T22:19:15.827Z,77.30
2017-11-01T22:21:44.760Z,75.77
2017-11-01T22:24:13.427Z,80.77
2017-11-01T22:26:41.590Z,63.67
2017-11-01T22:29:09.882Z,72.97
2017-11-01T22:31:38.052Z,77.27
2017-11-01T22:34:06.212Z,68.43
2017-11-01T22:36:34.392Z,60.60
2017-11-01T22:39:02.540Z,66.23
2017-11-01T22:41:31.488Z,70.17
2017-11-01T22:44:00.060Z,59.00
2017-11-01T22:46:28.241Z,61.80
2017-11-01T22:48:56.397Z,62.67
2017-11-01T22:51:24.756Z,67.87
2017-11-01T22:53:52.904Z,64.40
2017-11-01T22:56:21.829Z,56.53
2017-11-01T22:58:50.021Z,61.00
2017-11-01T23:01:18.192Z,56.33
2017-11-01T23:03:46.464Z,56.07
2017-11-01T23:06:14.671Z,64.33
2017-11-01T23:08:42.834Z,59.23
2017-11-01T23:11:10.993Z,54.03
2017-11-01T23:13:39.172Z,57.50
2017-11-01T23:16:07.338Z,54.13
2017-11-01T23:18:35.507Z,60.40
2017-11-01T23:21:03.679Z,51.23
2017-11-01T23:23:32.195Z,56.07
2017-11-01T23:26:00.348Z,58.90
2017-11-01T23:28:28.527Z,63.60
2017-11-01T23:30:56.687Z,56.37
2017-11-01T23:33:24.851Z,53.33
2017-11-01T23:35:53.120Z,67.00
2017-11-01T23:38:21.527Z,70.83
2017-11-01T23:40:49.791Z,64.93
2017-11-01T23:43:17.957Z,53.23
2017-11-01T23:45:46.128Z,55.50
2017-11-01T23:48:14.416Z,51.03
2017-11-01T23:50:42.589Z,53.63
2017-11-01T23:53:10.748Z,63.90
2017-11-01T23:55:38.927Z,43.73
2017-11-01T23:58:07.200Z,51.33
